Warwick, RI

14:47 EDT le 24 octobre 2014 (GMT -0400)
Green State | Change Station
CLOSE
Current Station
Aéroport
Location: Providence,
Altitude: 62 ft
Stations météo à proximité

Alt. 62 ft 41.72 °N, 71.43 °W | Updated 56 minutes ago

Couvert
Couvert
54 ° F
Paraît 54 ° F
N
10
Vent Variable Vent de NO

Aujourd'hui
Haut(e) -- | Bas -- ° F
--% Risque de précip.
Hier
Haut(e) -- | Bas -- ° F
Precip. -- pouce
7:08 AM 5:50 PM
Nouvelle lune, 1% visible
Pression 29.69 pouce
Visibilité 10.0 Miles terrestres
Nuages Couvert 2300 ft
Point de rosée 45 ° F
Humidité 72%
Précipitations 0.05 pouce
Profondeur de la couche neigeuse Non disponible.
UV 1 sur 12
Pollen .10 sur 12
Ozone Bon
PM2.5 Bon
Flu Activity No Activity
METAR KPVD 241751Z 32009KT 10SM OVC023 12/07 A2969 RMK AO2 SLP054 60000 T01220072 10122 20106 58009

More Conditions Fewer Conditions

Pression 29.69 pouce
Visibilité 10.0 Miles terrestres
Nuages Couvert 2300 ft
Point de rosée 45 ° F
Humidité 72%
Précipitations 0.05 pouce
Profondeur de la couche neigeuse Non disponible.
UV 1 sur 12
Pollen .10 sur 12
Ozone Bon
PM2.5 Bon
Flu Activity No Activity
METAR KPVD 241751Z 32009KT 10SM OVC023 12/07 A2969 RMK AO2 SLP054 60000 T01220072 10122 20106 58009

More Conditions Fewer Conditions

10-Day Weather Forecast

Almanac

Astronomie

Oct. 24, 2014 Lever Coucher
Temps réel 07:08 EDT 17:50 EDT
Crépuscule civil 06:39 EDT 18:19 EDT
Crépuscule nautique 06:07 EDT 18:51 EDT
Crépuscule astronomique 05:35 EDT 19:23 EDT
Lune 07:44 EDT 18:28 EDT
Durée de lumière visible 11h 39m
Longueur du jour
10h 42m
Tomorrow will be 2m 35s shorter.
Nouvelle lune, 1% of the Moon is Illuminated
Aujourd'hui
Nouvelle lune
Oct 30
Premier quartier
Nov 6
Pleine lune
Nov 14
Dernier quartier
Nov 22
Nouveau

Extrêmes aujourd'hui

State Highs State Lows

Community

WunderPhotos

Upload Photos

1,764,634 Photos téléchargées !

Nearby

Qualité de l'air

  Qualité de l'air Indice de la qualité de l'air Polluant
Hier Bon
OZONE
Actuel Bon
OZONE
Actuel Bon
PM2.5
vendredi Bon
OZONE
vendredi Bon
PM2.5
samedi Bon
OZONE
samedi Bon
PM2.5
dimanche Bon
OZONE
dimanche Bon
PM2.5
lundi Bon
OZONE
lundi Bon
PM2.5

Épaisseur de neige

Station Depth Altitude
Pas de nouvelles chutes de neige

Activité sismique

Ville Distance Mag. Time & Date
No recent earthquake activity has been reported nearby.
Minimum magnitude displayed is 2.5.

Températures des eaux côtières

Lieu Température
Newport, RI 60.1 ° F
Quonset Point, RI 59.0 ° F
Conimicut Light, RI 60.1 ° F

Stations météo à proximité